sensor_id;sensor_type;location;lat;lon;timestamp;temperature;humidity
19920;DHT22;10122;50.074;19.920;2022-12-07T00:01:37;4.30;99.90
19920;DHT22;10122;50.074;19.920;2022-12-07T00:04:09;4.30;99.90
19920;DHT22;10122;50.074;19.920;2022-12-07T00:06:42;4.30;99.90
19920;DHT22;10122;50.074;19.920;2022-12-07T00:09:12;4.30;99.90
19920;DHT22;10122;50.074;19.920;2022-12-07T00:11:38;4.40;99.90
19920;DHT22;10122;50.074;19.920;2022-12-07T00:14:06;4.40;99.90
19920;DHT22;10122;50.074;19.920;2022-12-07T00:16:33;4.40;99.90
19920;DHT22;10122;50.074;19.920;2022-12-07T00:18:59;4.30;99.90
19920;DHT22;10122;50.074;19.920;2022-12-07T00:21:33;4.30;99.90
19920;DHT22;10122;50.074;19.920;2022-12-07T00:24:00;4.30;99.90
19920;DHT22;10122;50.074;19.920;2022-12-07T00:26:34;4.30;99.90
19920;DHT22;10122;50.074;19.920;2022-12-07T00:29:06;4.30;99.90
19920;DHT22;10122;50.074;19.920;2022-12-07T00:31:34;4.30;99.90
19920;DHT22;10122;50.074;19.920;2022-12-07T00:34:04;4.30;99.90
19920;DHT22;10122;50.074;19.920;2022-12-07T00:36:30;4.30;99.90
19920;DHT22;10122;50.074;19.920;2022-12-07T00:38:58;4.30;99.90
19920;DHT22;10122;50.074;19.920;2022-12-07T00:41:26;4.30;99.90
19920;DHT22;10122;50.074;19.920;2022-12-07T00:43:52;4.30;99.90
19920;DHT22;10122;50.074;19.920;2022-12-07T00:46:19;4.30;99.90
19920;DHT22;10122;50.074;19.920;2022-12-07T00:48:46;4.30;99.90
19920;DHT22;10122;50.074;19.920;2022-12-07T00:51:14;4.30;99.90
19920;DHT22;10122;50.074;19.920;2022-12-07T00:53:40;4.20;99.90
19920;DHT22;10122;50.074;19.920;2022-12-07T00:56:07;4.30;99.90
19920;DHT22;10122;50.074;19.920;2022-12-07T00:58:33;4.30;99.90
19920;DHT22;10122;50.074;19.920;2022-12-07T01:01:00;4.20;99.90
19920;DHT22;10122;50.074;19.920;2022-12-07T01:03:27;4.30;99.90
19920;DHT22;10122;50.074;19.920;2022-12-07T01:05:54;4.30;99.90
19920;DHT22;10122;50.074;19.920;2022-12-07T01:08:21;4.30;99.90
19920;DHT22;10122;50.074;19.920;2022-12-07T01:10:47;4.30;99.90
19920;DHT22;10122;50.074;19.920;2022-12-07T01:13:13;4.20;99.90
19920;DHT22;10122;50.074;19.920;2022-12-07T01:15:43;4.30;99.90
19920;DHT22;10122;50.074;19.920;2022-12-07T01:18:10;4.30;99.90
19920;DHT22;10122;50.074;19.920;2022-12-07T01:20:36;4.30;99.90
19920;DHT22;10122;50.074;19.920;2022-12-07T01:23:01;4.20;99.90
19920;DHT22;10122;50.074;19.920;2022-12-07T01:25:27;4.20;99.90
19920;DHT22;10122;50.074;19.920;2022-12-07T01:27:53;4.20;99.90
19920;DHT22;10122;50.074;19.920;2022-12-07T01:30:19;4.20;99.90
19920;DHT22;10122;50.074;19.920;2022-12-07T01:32:44;4.20;99.90
19920;DHT22;10122;50.074;19.920;2022-12-07T01:35:10;4.20;99.90
19920;DHT22;10122;50.074;19.920;2022-12-07T01:37:37;4.20;99.90
19920;DHT22;10122;50.074;19.920;2022-12-07T01:40:04;4.20;99.90
19920;DHT22;10122;50.074;19.920;2022-12-07T01:42:30;4.20;99.90
19920;DHT22;10122;50.074;19.920;2022-12-07T01:47:52;4.30;99.90
19920;DHT22;10122;50.074;19.920;2022-12-07T01:50:19;4.20;99.90
19920;DHT22;10122;50.074;19.920;2022-12-07T01:52:47;4.20;99.90
19920;DHT22;10122;50.074;19.920;2022-12-07T01:55:15;4.20;99.90
19920;DHT22;10122;50.074;19.920;2022-12-07T01:57:45;4.20;99.90
19920;DHT22;10122;50.074;19.920;2022-12-07T02:00:13;4.10;99.90
19920;DHT22;10122;50.074;19.920;2022-12-07T02:02:48;4.10;99.90
19920;DHT22;10122;50.074;19.920;2022-12-07T02:05:17;4.20;99.90
19920;DHT22;10122;50.074;19.920;2022-12-07T02:07:43;4.20;99.90
19920;DHT22;10122;50.074;19.920;2022-12-07T02:10:36;4.20;99.90
19920;DHT22;10122;50.074;19.920;2022-12-07T02:13:05;4.20;99.90
19920;DHT22;10122;50.074;19.920;2022-12-07T02:15:41;4.20;99.90
19920;DHT22;10122;50.074;19.920;2022-12-07T02:28:37;4.20;99.90
19920;DHT22;10122;50.074;19.920;2022-12-07T02:31:23;4.10;99.90
19920;DHT22;10122;50.074;19.920;2022-12-07T02:34:28;4.10;99.90
19920;DHT22;10122;50.074;19.920;2022-12-07T02:36:59;4.00;99.90
19920;DHT22;10122;50.074;19.920;2022-12-07T02:39:42;4.00;99.90
19920;DHT22;10122;50.074;19.920;2022-12-07T02:42:18;4.00;99.90
19920;DHT22;10122;50.074;19.920;2022-12-07T02:44:45;4.00;99.90
19920;DHT22;10122;50.074;19.920;2022-12-07T02:47:15;4.00;99.90
19920;DHT22;10122;50.074;19.920;2022-12-07T02:49:42;4.00;99.90
19920;DHT22;10122;50.074;19.920;2022-12-07T02:52:08;3.90;99.90
19920;DHT22;10122;50.074;19.920;2022-12-07T02:54:34;4.00;99.90
19920;DHT22;10122;50.074;19.920;2022-12-07T03:05:07;4.00;99.90
19920;DHT22;10122;50.074;19.920;2022-12-07T03:11:02;3.90;99.90
19920;DHT22;10122;50.074;19.920;2022-12-07T03:13:59;3.90;99.90
19920;DHT22;10122;50.074;19.920;2022-12-07T03:16:42;3.90;99.90
19920;DHT22;10122;50.074;19.920;2022-12-07T03:19:14;3.90;99.90
19920;DHT22;10122;50.074;19.920;2022-12-07T03:21:44;3.90;99.90
19920;DHT22;10122;50.074;19.920;2022-12-07T03:24:17;3.90;99.90
19920;DHT22;10122;50.074;19.920;2022-12-07T03:26:59;3.90;99.90
19920;DHT22;10122;50.074;19.920;2022-12-07T03:29:44;3.90;99.90
19920;DHT22;10122;50.074;19.920;2022-12-07T03:35:04;3.80;99.90
19920;DHT22;10122;50.074;19.920;2022-12-07T03:37:44;3.80;99.90
19920;DHT22;10122;50.074;19.920;2022-12-07T03:42:37;3.80;99.90
19920;DHT22;10122;50.074;19.920;2022-12-07T03:45:04;3.80;99.90
19920;DHT22;10122;50.074;19.920;2022-12-07T03:47:47;3.90;99.90
19920;DHT22;10122;50.074;19.920;2022-12-07T03:50:29;3.80;99.90
19920;DHT22;10122;50.074;19.920;2022-12-07T03:53:07;3.80;99.90
19920;DHT22;10122;50.074;19.920;2022-12-07T03:55:36;3.70;99.90
19920;DHT22;10122;50.074;19.920;2022-12-07T03:58:07;3.80;99.90
19920;DHT22;10122;50.074;19.920;2022-12-07T04:00:35;3.80;99.90
19920;DHT22;10122;50.074;19.920;2022-12-07T04:03:00;3.80;99.90
19920;DHT22;10122;50.074;19.920;2022-12-07T04:05:26;3.80;99.90
19920;DHT22;10122;50.074;19.920;2022-12-07T04:07:52;3.80;99.90
19920;DHT22;10122;50.074;19.920;2022-12-07T04:10:18;3.80;99.90
19920;DHT22;10122;50.074;19.920;2022-12-07T04:12:44;3.80;99.90
19920;DHT22;10122;50.074;19.920;2022-12-07T04:15:10;3.80;99.90
19920;DHT22;10122;50.074;19.920;2022-12-07T04:17:36;3.90;99.90
19920;DHT22;10122;50.074;19.920;2022-12-07T04:20:03;3.90;99.90
19920;DHT22;10122;50.074;19.920;2022-12-07T04:22:29;3.90;99.90
19920;DHT22;10122;50.074;19.920;2022-12-07T04:24:55;3.90;99.90
19920;DHT22;10122;50.074;19.920;2022-12-07T04:27:21;3.90;99.90
19920;DHT22;10122;50.074;19.920;2022-12-07T04:29:46;4.00;99.90
19920;DHT22;10122;50.074;19.920;2022-12-07T04:32:12;4.00;99.90
19920;DHT22;10122;50.074;19.920;2022-12-07T04:34:38;4.00;99.90
19920;DHT22;10122;50.074;19.920;2022-12-07T04:37:04;3.90;99.90
19920;DHT22;10122;50.074;19.920;2022-12-07T04:39:31;4.00;99.90
19920;DHT22;10122;50.074;19.920;2022-12-07T04:41:57;4.00;99.90
19920;DHT22;10122;50.074;19.920;2022-12-07T04:44:25;4.00;99.90
19920;DHT22;10122;50.074;19.920;2022-12-07T04:46:51;4.00;99.90
19920;DHT22;10122;50.074;19.920;2022-12-07T04:49:18;4.00;99.90
19920;DHT22;10122;50.074;19.920;2022-12-07T04:51:44;4.00;99.90
19920;DHT22;10122;50.074;19.920;2022-12-07T04:54:11;4.00;99.90
19920;DHT22;10122;50.074;19.920;2022-12-07T04:56:37;4.00;99.90
19920;DHT22;10122;50.074;19.920;2022-12-07T04:59:03;4.00;99.90
19920;DHT22;10122;50.074;19.920;2022-12-07T05:01:29;4.00;99.90
19920;DHT22;10122;50.074;19.920;2022-12-07T05:03:55;4.00;99.90
19920;DHT22;10122;50.074;19.920;2022-12-07T05:06:21;4.00;99.90
19920;DHT22;10122;50.074;19.920;2022-12-07T05:08:47;4.10;99.90
19920;DHT22;10122;50.074;19.920;2022-12-07T05:11:13;4.10;99.90
19920;DHT22;10122;50.074;19.920;2022-12-07T05:13:58;4.10;99.90
19920;DHT22;10122;50.074;19.920;2022-12-07T05:16:24;4.00;99.90
19920;DHT22;10122;50.074;19.920;2022-12-07T05:18:50;3.90;99.90
19920;DHT22;10122;50.074;19.920;2022-12-07T05:21:15;3.90;99.90
19920;DHT22;10122;50.074;19.920;2022-12-07T05:23:41;3.90;99.90
19920;DHT22;10122;50.074;19.920;2022-12-07T05:26:07;3.90;99.90
19920;DHT22;10122;50.074;19.920;2022-12-07T05:28:32;3.90;99.90
19920;DHT22;10122;50.074;19.920;2022-12-07T05:30:58;3.90;99.90
19920;DHT22;10122;50.074;19.920;2022-12-07T05:33:24;3.90;99.90
19920;DHT22;10122;50.074;19.920;2022-12-07T05:35:49;3.90;99.90
19920;DHT22;10122;50.074;19.920;2022-12-07T05:38:15;3.90;99.90
19920;DHT22;10122;50.074;19.920;2022-12-07T05:40:41;3.80;99.90
19920;DHT22;10122;50.074;19.920;2022-12-07T05:43:06;3.80;99.90
19920;DHT22;10122;50.074;19.920;2022-12-07T05:45:32;3.70;99.90
19920;DHT22;10122;50.074;19.920;2022-12-07T05:47:58;3.70;99.90
19920;DHT22;10122;50.074;19.920;2022-12-07T05:50:23;3.70;99.90
19920;DHT22;10122;50.074;19.920;2022-12-07T05:52:49;3.70;99.90
19920;DHT22;10122;50.074;19.920;2022-12-07T05:55:15;3.70;99.90
19920;DHT22;10122;50.074;19.920;2022-12-07T05:57:40;3.70;99.90
19920;DHT22;10122;50.074;19.920;2022-12-07T06:00:26;3.70;99.90
19920;DHT22;10122;50.074;19.920;2022-12-07T06:02:52;3.70;99.90
19920;DHT22;10122;50.074;19.920;2022-12-07T06:05:17;3.70;99.90
19920;DHT22;10122;50.074;19.920;2022-12-07T06:07:43;3.80;99.90
19920;DHT22;10122;50.074;19.920;2022-12-07T06:10:09;3.90;99.90
19920;DHT22;10122;50.074;19.920;2022-12-07T06:12:35;3.90;99.90
19920;DHT22;10122;50.074;19.920;2022-12-07T06:15:01;4.00;99.90
19920;DHT22;10122;50.074;19.920;2022-12-07T06:17:27;3.90;99.90
19920;DHT22;10122;50.074;19.920;2022-12-07T06:19:53;3.90;99.90
19920;DHT22;10122;50.074;19.920;2022-12-07T06:22:18;4.00;99.90
19920;DHT22;10122;50.074;19.920;2022-12-07T06:24:44;4.00;99.90
19920;DHT22;10122;50.074;19.920;2022-12-07T06:27:10;4.00;99.90
19920;DHT22;10122;50.074;19.920;2022-12-07T06:29:36;4.00;99.90
19920;DHT22;10122;50.074;19.920;2022-12-07T06:32:02;4.00;99.90
19920;DHT22;10122;50.074;19.920;2022-12-07T06:34:28;4.00;99.90
19920;DHT22;10122;50.074;19.920;2022-12-07T06:36:54;4.00;99.90
19920;DHT22;10122;50.074;19.920;2022-12-07T06:39:25;4.00;99.90
19920;DHT22;10122;50.074;19.920;2022-12-07T06:41:51;4.00;99.90
19920;DHT22;10122;50.074;19.920;2022-12-07T06:44:18;4.00;99.90
19920;DHT22;10122;50.074;19.920;2022-12-07T06:46:44;3.90;99.90
19920;DHT22;10122;50.074;19.920;2022-12-07T06:49:10;4.00;99.90
19920;DHT22;10122;50.074;19.920;2022-12-07T06:51:36;4.00;99.90
19920;DHT22;10122;50.074;19.920;2022-12-07T06:54:09;4.00;99.90
19920;DHT22;10122;50.074;19.920;2022-12-07T06:56:35;4.00;99.90
19920;DHT22;10122;50.074;19.920;2022-12-07T06:59:01;4.00;99.90
19920;DHT22;10122;50.074;19.920;2022-12-07T07:01:27;4.00;99.90
19920;DHT22;10122;50.074;19.920;2022-12-07T07:03:53;4.00;99.90
19920;DHT22;10122;50.074;19.920;2022-12-07T07:06:19;4.00;99.90
19920;DHT22;10122;50.074;19.920;2022-12-07T07:08:45;4.00;99.90
19920;DHT22;10122;50.074;19.920;2022-12-07T07:11:11;4.00;99.90
19920;DHT22;10122;50.074;19.920;2022-12-07T07:13:37;4.00;99.90
19920;DHT22;10122;50.074;19.920;2022-12-07T07:16:03;3.90;99.90
19920;DHT22;10122;50.074;19.920;2022-12-07T07:18:29;4.00;99.90
19920;DHT22;10122;50.074;19.920;2022-12-07T07:20:55;4.00;99.90
19920;DHT22;10122;50.074;19.920;2022-12-07T07:23:21;3.90;99.90
19920;DHT22;10122;50.074;19.920;2022-12-07T07:25:47;4.00;99.90
19920;DHT22;10122;50.074;19.920;2022-12-07T07:28:13;3.90;99.90
19920;DHT22;10122;50.074;19.920;2022-12-07T07:30:39;3.90;99.90
19920;DHT22;10122;50.074;19.920;2022-12-07T07:33:05;4.00;99.90
19920;DHT22;10122;50.074;19.920;2022-12-07T07:35:32;3.90;99.90
19920;DHT22;10122;50.074;19.920;2022-12-07T07:37:59;3.90;99.90
19920;DHT22;10122;50.074;19.920;2022-12-07T07:40:25;4.00;99.90
19920;DHT22;10122;50.074;19.920;2022-12-07T07:42:52;4.00;99.90
19920;DHT22;10122;50.074;19.920;2022-12-07T07:45:19;4.10;99.90
19920;DHT22;10122;50.074;19.920;2022-12-07T07:47:45;4.10;99.90
19920;DHT22;10122;50.074;19.920;2022-12-07T07:50:11;4.10;99.90
19920;DHT22;10122;50.074;19.920;2022-12-07T07:52:37;4.10;99.90
19920;DHT22;10122;50.074;19.920;2022-12-07T07:55:03;4.10;99.90
19920;DHT22;10122;50.074;19.920;2022-12-07T07:57:29;4.10;99.90
19920;DHT22;10122;50.074;19.920;2022-12-07T07:59:54;4.20;99.90
19920;DHT22;10122;50.074;19.920;2022-12-07T08:02:21;4.10;99.90
19920;DHT22;10122;50.074;19.920;2022-12-07T08:04:47;4.10;99.90
19920;DHT22;10122;50.074;19.920;2022-12-07T08:07:13;4.20;99.90
19920;DHT22;10122;50.074;19.920;2022-12-07T08:09:39;4.20;99.90
19920;DHT22;10122;50.074;19.920;2022-12-07T08:12:05;4.20;99.90
19920;DHT22;10122;50.074;19.920;2022-12-07T08:14:31;4.20;99.90
19920;DHT22;10122;50.074;19.920;2022-12-07T08:16:57;4.20;99.90
19920;DHT22;10122;50.074;19.920;2022-12-07T08:19:23;4.20;99.90
19920;DHT22;10122;50.074;19.920;2022-12-07T08:21:49;4.30;99.90
19920;DHT22;10122;50.074;19.920;2022-12-07T08:24:15;4.20;99.90
19920;DHT22;10122;50.074;19.920;2022-12-07T08:26:41;4.30;99.90
19920;DHT22;10122;50.074;19.920;2022-12-07T08:29:07;4.30;99.90
19920;DHT22;10122;50.074;19.920;2022-12-07T08:31:32;4.30;99.90
19920;DHT22;10122;50.074;19.920;2022-12-07T08:33:58;4.30;99.90
19920;DHT22;10122;50.074;19.920;2022-12-07T08:36:24;4.30;99.90
19920;DHT22;10122;50.074;19.920;2022-12-07T08:38:50;4.40;99.90
19920;DHT22;10122;50.074;19.920;2022-12-07T08:41:16;4.40;99.90
19920;DHT22;10122;50.074;19.920;2022-12-07T08:43:42;4.40;99.90
19920;DHT22;10122;50.074;19.920;2022-12-07T08:46:29;4.40;99.90
19920;DHT22;10122;50.074;19.920;2022-12-07T08:49:04;4.40;99.90
19920;DHT22;10122;50.074;19.920;2022-12-07T08:51:32;4.40;99.90
19920;DHT22;10122;50.074;19.920;2022-12-07T08:53:59;4.40;99.90
19920;DHT22;10122;50.074;19.920;2022-12-07T08:56:27;4.40;99.90
19920;DHT22;10122;50.074;19.920;2022-12-07T08:58:53;4.40;99.90
19920;DHT22;10122;50.074;19.920;2022-12-07T09:01:18;4.40;99.90
19920;DHT22;10122;50.074;19.920;2022-12-07T09:03:44;4.30;99.90
19920;DHT22;10122;50.074;19.920;2022-12-07T09:06:10;4.30;99.90
19920;DHT22;10122;50.074;19.920;2022-12-07T09:08:42;4.30;99.90
19920;DHT22;10122;50.074;19.920;2022-12-07T09:11:09;4.40;99.90
19920;DHT22;10122;50.074;19.920;2022-12-07T09:13:34;4.40;99.90
19920;DHT22;10122;50.074;19.920;2022-12-07T09:16:00;4.50;99.90
19920;DHT22;10122;50.074;19.920;2022-12-07T09:18:26;4.50;99.90
19920;DHT22;10122;50.074;19.920;2022-12-07T09:20:52;4.50;99.90
19920;DHT22;10122;50.074;19.920;2022-12-07T09:23:17;4.50;99.90
19920;DHT22;10122;50.074;19.920;2022-12-07T09:25:43;4.50;99.90
19920;DHT22;10122;50.074;19.920;2022-12-07T09:28:09;4.60;99.90
19920;DHT22;10122;50.074;19.920;2022-12-07T09:30:34;4.60;99.90
19920;DHT22;10122;50.074;19.920;2022-12-07T09:33:00;4.50;99.90
19920;DHT22;10122;50.074;19.920;2022-12-07T09:35:26;4.50;99.90
19920;DHT22;10122;50.074;19.920;2022-12-07T09:37:52;4.50;99.90
19920;DHT22;10122;50.074;19.920;2022-12-07T09:40:20;4.50;99.90
19920;DHT22;10122;50.074;19.920;2022-12-07T09:42:49;4.60;99.90
19920;DHT22;10122;50.074;19.920;2022-12-07T09:45:34;4.60;99.90
19920;DHT22;10122;50.074;19.920;2022-12-07T09:48:02;4.60;99.90
19920;DHT22;10122;50.074;19.920;2022-12-07T09:50:29;4.60;99.90
19920;DHT22;10122;50.074;19.920;2022-12-07T09:53:49;4.60;99.90
19920;DHT22;10122;50.074;19.920;2022-12-07T09:56:13;4.60;99.90
19920;DHT22;10122;50.074;19.920;2022-12-07T09:58:39;4.60;99.90
19920;DHT22;10122;50.074;19.920;2022-12-07T10:01:18;4.60;99.90
19920;DHT22;10122;50.074;19.920;2022-12-07T10:03:55;4.60;99.90
19920;DHT22;10122;50.074;19.920;2022-12-07T10:06:24;4.60;99.90
19920;DHT22;10122;50.074;19.920;2022-12-07T10:08:50;4.60;99.90
19920;DHT22;10122;50.074;19.920;2022-12-07T10:11:16;4.60;99.90
19920;DHT22;10122;50.074;19.920;2022-12-07T10:13:44;4.70;99.90
19920;DHT22;10122;50.074;19.920;2022-12-07T10:18:50;4.70;99.90
19920;DHT22;10122;50.074;19.920;2022-12-07T10:21:24;4.70;99.90
19920;DHT22;10122;50.074;19.920;2022-12-07T10:24:14;4.70;99.90
19920;DHT22;10122;50.074;19.920;2022-12-07T10:31:41;4.70;99.90
19920;DHT22;10122;50.074;19.920;2022-12-07T10:34:30;4.70;99.90
19920;DHT22;10122;50.074;19.920;2022-12-07T10:37:19;4.70;99.90
19920;DHT22;10122;50.074;19.920;2022-12-07T10:39:56;4.70;99.90
19920;DHT22;10122;50.074;19.920;2022-12-07T10:42:31;4.70;99.90
19920;DHT22;10122;50.074;19.920;2022-12-07T10:48:02;4.70;99.90
19920;DHT22;10122;50.074;19.920;2022-12-07T10:53:48;4.90;99.90
19920;DHT22;10122;50.074;19.920;2022-12-07T11:10:24;5.10;99.90
19920;DHT22;10122;50.074;19.920;2022-12-07T11:21:30;5.20;99.90
19920;DHT22;10122;50.074;19.920;2022-12-07T11:24:04;5.20;99.90
19920;DHT22;10122;50.074;19.920;2022-12-07T11:35:22;5.20;99.90
19920;DHT22;10122;50.074;19.920;2022-12-07T11:37:40;5.20;99.90
19920;DHT22;10122;50.074;19.920;2022-12-07T11:40:29;5.30;99.90
19920;DHT22;10122;50.074;19.920;2022-12-07T11:43:05;5.30;99.90
19920;DHT22;10122;50.074;19.920;2022-12-07T11:45:39;5.30;99.90
19920;DHT22;10122;50.074;19.920;2022-12-07T11:48:22;5.40;99.90
19920;DHT22;10122;50.074;19.920;2022-12-07T11:50:55;5.40;99.90
19920;DHT22;10122;50.074;19.920;2022-12-07T11:53:44;5.60;99.90
19920;DHT22;10122;50.074;19.920;2022-12-07T11:59:01;5.80;99.90
19920;DHT22;10122;50.074;19.920;2022-12-07T12:06:37;5.60;99.90
19920;DHT22;10122;50.074;19.920;2022-12-07T12:14:46;5.80;99.90
19920;DHT22;10122;50.074;19.920;2022-12-07T12:20:27;6.10;99.90
19920;DHT22;10122;50.074;19.920;2022-12-07T12:23:19;6.00;99.90
19920;DHT22;10122;50.074;19.920;2022-12-07T12:25:50;5.90;99.90
19920;DHT22;10122;50.074;19.920;2022-12-07T12:28:27;5.80;99.90
19920;DHT22;10122;50.074;19.920;2022-12-07T12:33:50;5.80;99.90
19920;DHT22;10122;50.074;19.920;2022-12-07T12:46:58;5.80;99.90
19920;DHT22;10122;50.074;19.920;2022-12-07T12:51:58;5.70;99.90
19920;DHT22;10122;50.074;19.920;2022-12-07T12:54:32;5.60;99.90
19920;DHT22;10122;50.074;19.920;2022-12-07T12:57:20;5.50;99.90
19920;DHT22;10122;50.074;19.920;2022-12-07T13:02:39;5.50;99.90
19920;DHT22;10122;50.074;19.920;2022-12-07T13:20:59;5.50;99.90
19920;DHT22;10122;50.074;19.920;2022-12-07T13:26:19;5.50;99.90
19920;DHT22;10122;50.074;19.920;2022-12-07T13:29:19;5.50;99.90
19920;DHT22;10122;50.074;19.920;2022-12-07T13:31:40;5.60;99.90
19920;DHT22;10122;50.074;19.920;2022-12-07T13:34:40;5.50;99.90
19920;DHT22;10122;50.074;19.920;2022-12-07T13:39:55;5.80;99.90
19920;DHT22;10122;50.074;19.920;2022-12-07T13:42:29;6.00;99.90
19920;DHT22;10122;50.074;19.920;2022-12-07T13:44:56;5.90;99.90
19920;DHT22;10122;50.074;19.920;2022-12-07T13:47:36;5.80;99.90
19920;DHT22;10122;50.074;19.920;2022-12-07T13:52:47;5.60;99.90
19920;DHT22;10122;50.074;19.920;2022-12-07T13:55:16;5.60;99.90
19920;DHT22;10122;50.074;19.920;2022-12-07T13:57:44;5.60;99.90
19920;DHT22;10122;50.074;19.920;2022-12-07T14:00:20;5.60;99.90
19920;DHT22;10122;50.074;19.920;2022-12-07T14:05:29;5.50;99.90
19920;DHT22;10122;50.074;19.920;2022-12-07T14:10:34;5.50;99.90
19920;DHT22;10122;50.074;19.920;2022-12-07T14:13:01;5.50;99.90
19920;DHT22;10122;50.074;19.920;2022-12-07T14:15:33;5.50;99.90
19920;DHT22;10122;50.074;19.920;2022-12-07T14:18:00;5.40;99.90
19920;DHT22;10122;50.074;19.920;2022-12-07T14:20:30;5.40;99.90
19920;DHT22;10122;50.074;19.920;2022-12-07T14:22:57;5.40;99.90
19920;DHT22;10122;50.074;19.920;2022-12-07T14:25:24;5.30;99.90
19920;DHT22;10122;50.074;19.920;2022-12-07T14:27:59;5.30;99.90
19920;DHT22;10122;50.074;19.920;2022-12-07T14:30:27;5.30;99.90
19920;DHT22;10122;50.074;19.920;2022-12-07T14:33:00;5.30;99.90
19920;DHT22;10122;50.074;19.920;2022-12-07T14:35:27;5.30;99.90
19920;DHT22;10122;50.074;19.920;2022-12-07T14:37:52;5.20;99.90
19920;DHT22;10122;50.074;19.920;2022-12-07T14:40:26;5.20;99.90
19920;DHT22;10122;50.074;19.920;2022-12-07T14:43:04;5.20;99.90
19920;DHT22;10122;50.074;19.920;2022-12-07T14:45:32;5.20;99.90
19920;DHT22;10122;50.074;19.920;2022-12-07T14:47:58;5.20;99.90
19920;DHT22;10122;50.074;19.920;2022-12-07T14:50:23;5.20;99.90
19920;DHT22;10122;50.074;19.920;2022-12-07T14:52:55;5.20;99.90
19920;DHT22;10122;50.074;19.920;2022-12-07T14:55:29;5.20;99.90
19920;DHT22;10122;50.074;19.920;2022-12-07T14:57:56;5.10;99.90
19920;DHT22;10122;50.074;19.920;2022-12-07T15:00:24;5.10;99.90
19920;DHT22;10122;50.074;19.920;2022-12-07T15:02:51;5.10;99.90
19920;DHT22;10122;50.074;19.920;2022-12-07T15:05:17;5.10;99.90
19920;DHT22;10122;50.074;19.920;2022-12-07T15:07:44;5.10;99.90
19920;DHT22;10122;50.074;19.920;2022-12-07T15:12:43;5.10;99.90
19920;DHT22;10122;50.074;19.920;2022-12-07T15:15:09;5.10;99.90
19920;DHT22;10122;50.074;19.920;2022-12-07T15:17:35;5.10;99.90
19920;DHT22;10122;50.074;19.920;2022-12-07T15:20:01;5.10;99.90
19920;DHT22;10122;50.074;19.920;2022-12-07T15:22:26;5.10;99.90
19920;DHT22;10122;50.074;19.920;2022-12-07T15:24:52;5.10;99.90
19920;DHT22;10122;50.074;19.920;2022-12-07T15:27:18;5.10;99.90
19920;DHT22;10122;50.074;19.920;2022-12-07T15:29:43;5.10;99.90
19920;DHT22;10122;50.074;19.920;2022-12-07T15:32:09;5.10;99.90
19920;DHT22;10122;50.074;19.920;2022-12-07T15:34:35;5.10;99.90
19920;DHT22;10122;50.074;19.920;2022-12-07T15:37:00;5.10;99.90
19920;DHT22;10122;50.074;19.920;2022-12-07T15:39:26;5.10;99.90
19920;DHT22;10122;50.074;19.920;2022-12-07T15:41:52;5.10;99.90
19920;DHT22;10122;50.074;19.920;2022-12-07T15:44:17;5.10;99.90
19920;DHT22;10122;50.074;19.920;2022-12-07T15:47:02;5.10;99.90
19920;DHT22;10122;50.074;19.920;2022-12-07T15:49:29;5.10;99.90
19920;DHT22;10122;50.074;19.920;2022-12-07T15:51:54;5.10;99.90
19920;DHT22;10122;50.074;19.920;2022-12-07T15:54:23;5.10;99.90
19920;DHT22;10122;50.074;19.920;2022-12-07T15:56:49;5.10;99.90
19920;DHT22;10122;50.074;19.920;2022-12-07T15:59:15;5.10;99.90
19920;DHT22;10122;50.074;19.920;2022-12-07T16:01:41;5.10;99.90
19920;DHT22;10122;50.074;19.920;2022-12-07T16:04:08;5.10;99.90
19920;DHT22;10122;50.074;19.920;2022-12-07T16:06:34;5.10;99.90
19920;DHT22;10122;50.074;19.920;2022-12-07T16:09:00;5.00;99.90
19920;DHT22;10122;50.074;19.920;2022-12-07T16:11:25;5.00;99.90
19920;DHT22;10122;50.074;19.920;2022-12-07T16:13:51;5.00;99.90
19920;DHT22;10122;50.074;19.920;2022-12-07T16:16:19;5.00;99.90
19920;DHT22;10122;50.074;19.920;2022-12-07T16:18:45;5.10;99.90
19920;DHT22;10122;50.074;19.920;2022-12-07T16:21:12;5.00;99.90
19920;DHT22;10122;50.074;19.920;2022-12-07T16:23:38;5.00;99.90
19920;DHT22;10122;50.074;19.920;2022-12-07T16:26:16;5.00;99.90
19920;DHT22;10122;50.074;19.920;2022-12-07T16:28:42;5.00;99.90
19920;DHT22;10122;50.074;19.920;2022-12-07T16:31:16;5.10;99.90
19920;DHT22;10122;50.074;19.920;2022-12-07T16:33:43;5.00;99.90
19920;DHT22;10122;50.074;19.920;2022-12-07T16:36:10;5.00;99.90
19920;DHT22;10122;50.074;19.920;2022-12-07T16:38:37;5.00;99.90
19920;DHT22;10122;50.074;19.920;2022-12-07T16:41:04;5.00;99.90
19920;DHT22;10122;50.074;19.920;2022-12-07T16:43:30;5.00;99.90
19920;DHT22;10122;50.074;19.920;2022-12-07T16:45:55;5.00;99.90
19920;DHT22;10122;50.074;19.920;2022-12-07T16:48:21;5.00;99.90
19920;DHT22;10122;50.074;19.920;2022-12-07T16:50:47;5.00;99.90
19920;DHT22;10122;50.074;19.920;2022-12-07T16:53:14;5.00;99.90
19920;DHT22;10122;50.074;19.920;2022-12-07T16:55:42;5.00;99.90
19920;DHT22;10122;50.074;19.920;2022-12-07T16:58:10;5.00;99.90
19920;DHT22;10122;50.074;19.920;2022-12-07T17:00:36;5.00;99.90
19920;DHT22;10122;50.074;19.920;2022-12-07T17:03:02;5.00;99.90
19920;DHT22;10122;50.074;19.920;2022-12-07T17:05:28;5.00;99.90
19920;DHT22;10122;50.074;19.920;2022-12-07T17:07:55;5.00;99.90
19920;DHT22;10122;50.074;19.920;2022-12-07T17:10:21;5.00;99.90
19920;DHT22;10122;50.074;19.920;2022-12-07T17:12:48;5.00;99.90
19920;DHT22;10122;50.074;19.920;2022-12-07T17:15:13;5.00;99.90
19920;DHT22;10122;50.074;19.920;2022-12-07T17:17:43;4.90;99.90
19920;DHT22;10122;50.074;19.920;2022-12-07T17:20:09;5.00;99.90
19920;DHT22;10122;50.074;19.920;2022-12-07T17:22:35;4.90;99.90
19920;DHT22;10122;50.074;19.920;2022-12-07T17:25:01;4.90;99.90
19920;DHT22;10122;50.074;19.920;2022-12-07T17:27:27;4.90;99.90
19920;DHT22;10122;50.074;19.920;2022-12-07T17:29:53;4.90;99.90
19920;DHT22;10122;50.074;19.920;2022-12-07T17:32:18;4.80;99.90
19920;DHT22;10122;50.074;19.920;2022-12-07T17:34:44;4.80;99.90
19920;DHT22;10122;50.074;19.920;2022-12-07T17:37:10;4.80;99.90
19920;DHT22;10122;50.074;19.920;2022-12-07T17:39:35;4.80;99.90
19920;DHT22;10122;50.074;19.920;2022-12-07T17:42:01;4.80;99.90
19920;DHT22;10122;50.074;19.920;2022-12-07T17:44:45;4.80;99.90
19920;DHT22;10122;50.074;19.920;2022-12-07T17:47:11;4.80;99.90
19920;DHT22;10122;50.074;19.920;2022-12-07T17:49:36;4.80;99.90
19920;DHT22;10122;50.074;19.920;2022-12-07T17:52:02;4.70;99.90
19920;DHT22;10122;50.074;19.920;2022-12-07T17:55:03;4.70;99.90
19920;DHT22;10122;50.074;19.920;2022-12-07T17:57:29;4.70;99.90
19920;DHT22;10122;50.074;19.920;2022-12-07T17:59:55;4.70;99.90
19920;DHT22;10122;50.074;19.920;2022-12-07T18:02:21;4.70;99.90
19920;DHT22;10122;50.074;19.920;2022-12-07T18:04:47;4.70;99.90